createdAt,value
2018-06-21T00:00:48.851Z,57.60
2018-06-21T00:03:17.342Z,58.29
2018-06-21T00:05:45.739Z,58.11
2018-06-21T00:08:14.206Z,58.52
2018-06-21T00:10:42.644Z,58.67
2018-06-21T00:13:11.112Z,58.58
2018-06-21T00:15:39.621Z,60.10
2018-06-21T00:18:08.107Z,59.03
2018-06-21T00:20:36.594Z,59.06
2018-06-21T00:23:05.059Z,59.51
2018-06-21T00:25:33.636Z,60.06
2018-06-21T00:28:02.155Z,59.35
2018-06-21T00:30:30.642Z,59.78
2018-06-21T00:32:59.041Z,60.00
2018-06-21T00:35:27.635Z,59.31
2018-06-21T00:37:56.107Z,59.73
2018-06-21T00:40:24.593Z,60.26
2018-06-21T00:42:53.096Z,60.84
2018-06-21T00:45:21.548Z,61.33
2018-06-21T00:47:50.006Z,61.07
2018-06-21T00:50:18.433Z,61.09
2018-06-21T00:52:46.988Z,60.53
2018-06-21T00:55:22.797Z,60.78
2018-06-21T00:57:51.348Z,62.14
2018-06-21T01:00:19.830Z,61.44
2018-06-21T01:02:48.349Z,62.17
2018-06-21T01:05:16.823Z,62.45
2018-06-21T01:07:45.218Z,61.67
2018-06-21T01:10:13.675Z,62.47
2018-06-21T01:12:42.107Z,62.34
2018-06-21T01:15:10.567Z,63.14
2018-06-21T01:17:39.002Z,62.30
2018-06-21T01:20:07.447Z,62.49
2018-06-21T01:22:35.913Z,62.77
2018-06-21T01:25:04.301Z,62.50
2018-06-21T01:27:32.708Z,62.78
2018-06-21T01:30:01.196Z,62.90
2018-06-21T01:32:29.622Z,63.21
2018-06-21T01:34:58.064Z,63.50
2018-06-21T01:37:26.550Z,63.23
2018-06-21T01:39:54.891Z,63.57
2018-06-21T01:42:23.290Z,63.43
2018-06-21T01:44:51.633Z,63.70
2018-06-21T01:47:19.983Z,65.49
2018-06-21T01:49:48.410Z,64.25
2018-06-21T01:52:16.832Z,63.91
2018-06-21T01:54:45.186Z,63.71
2018-06-21T01:57:13.534Z,63.49
2018-06-21T01:59:42.009Z,64.07
2018-06-21T02:02:10.378Z,63.67
2018-06-21T02:04:38.835Z,64.25
2018-06-21T02:07:07.332Z,63.86
2018-06-21T02:09:35.754Z,63.21
2018-06-21T02:12:04.136Z,63.97
2018-06-21T02:14:32.628Z,63.64
2018-06-21T02:17:01.065Z,63.06
2018-06-21T02:19:29.453Z,62.76
2018-06-21T02:21:58.179Z,64.01
2018-06-21T02:24:26.600Z,63.41
2018-06-21T02:26:55.134Z,63.92
2018-06-21T02:29:23.585Z,64.31
2018-06-21T02:31:51.979Z,64.62
2018-06-21T02:34:20.473Z,65.27
2018-06-21T02:36:48.846Z,64.73
2018-06-21T02:39:17.245Z,64.79
2018-06-21T02:41:45.617Z,65.44
2018-06-21T02:44:14.073Z,65.90
2018-06-21T02:46:42.475Z,65.88
2018-06-21T02:49:10.958Z,65.80
2018-06-21T02:51:39.412Z,66.11
2018-06-21T02:54:07.889Z,66.31
2018-06-21T02:56:36.313Z,66.13
2018-06-21T02:59:04.695Z,65.96
2018-06-21T03:01:33.119Z,66.37
2018-06-21T03:04:01.526Z,66.13
2018-06-21T03:06:29.782Z,65.97
2018-06-21T03:08:58.189Z,66.27
2018-06-21T03:11:26.678Z,66.10
2018-06-21T03:13:55.083Z,66.82
2018-06-21T03:16:23.564Z,66.95
2018-06-21T03:18:51.946Z,66.60
2018-06-21T03:21:20.351Z,66.28
2018-06-21T03:23:48.712Z,66.46
2018-06-21T03:26:17.152Z,66.51
2018-06-21T03:28:45.521Z,66.62
2018-06-21T03:31:13.922Z,66.35
2018-06-21T03:33:42.547Z,66.35
2018-06-21T03:36:11.187Z,65.91
2018-06-21T03:38:39.566Z,65.99
2018-06-21T03:41:07.908Z,66.36
2018-06-21T03:43:36.317Z,66.28
2018-06-21T03:46:04.714Z,66.67
2018-06-21T03:48:33.576Z,66.84
2018-06-21T03:51:02.027Z,66.41
2018-06-21T03:53:30.378Z,66.75
2018-06-21T03:55:58.892Z,66.89
2018-06-21T03:58:27.292Z,66.73
2018-06-21T04:00:55.691Z,66.62
2018-06-21T04:03:24.045Z,66.85
2018-06-21T04:05:52.421Z,67.68
2018-06-21T04:08:20.925Z,67.17
2018-06-21T04:10:49.308Z,66.02
2018-06-21T04:13:19.337Z,66.14
2018-06-21T04:15:51.294Z,66.95
2018-06-21T04:18:37.341Z,65.50
2018-06-21T04:21:07.341Z,65.44
2018-06-21T04:23:35.794Z,65.04
2018-06-21T04:26:07.327Z,65.35
2018-06-21T04:28:35.859Z,65.02
2018-06-21T04:31:05.675Z,64.63
2018-06-21T04:33:36.204Z,64.25
2018-06-21T04:36:04.982Z,67.48
2018-06-21T04:38:33.390Z,64.97
2018-06-21T04:41:01.823Z,64.12
2018-06-21T04:43:30.208Z,61.94
2018-06-21T04:45:58.648Z,60.78
2018-06-21T04:48:27.113Z,59.45
2018-06-21T04:50:55.696Z,59.51
2018-06-21T04:53:24.089Z,59.51
2018-06-21T04:55:52.394Z,59.19
2018-06-21T04:58:20.872Z,60.01
2018-06-21T05:00:49.280Z,57.91
2018-06-21T05:03:17.735Z,57.93
2018-06-21T05:05:46.244Z,56.46
2018-06-21T05:08:14.780Z,58.21
2018-06-21T05:10:43.435Z,56.50
2018-06-21T05:13:12.032Z,55.88
2018-06-21T05:15:40.389Z,55.41
2018-06-21T05:18:08.855Z,56.02
2018-06-21T05:20:37.523Z,55.27
2018-06-21T05:23:06.054Z,55.14
2018-06-21T05:25:34.430Z,54.61
2018-06-21T05:28:02.842Z,54.29
2018-06-21T05:30:31.223Z,53.73
2018-06-21T05:32:59.712Z,54.82
2018-06-21T05:35:28.153Z,53.78
2018-06-21T05:37:57.281Z,52.76
2018-06-21T05:40:31.913Z,53.03
2018-06-21T05:43:01.289Z,53.20
2018-06-21T05:45:29.685Z,54.15
2018-06-21T05:47:59.818Z,51.54
2018-06-21T05:50:29.129Z,52.14
2018-06-21T05:52:58.856Z,52.15
2018-06-21T05:55:27.455Z,51.11
2018-06-21T05:57:55.814Z,50.82
2018-06-21T06:00:24.205Z,49.13
2018-06-21T06:02:52.842Z,50.31
2018-06-21T06:05:21.427Z,49.26
2018-06-21T06:07:49.865Z,50.30
2018-06-21T06:10:18.396Z,48.67
2018-06-21T06:12:46.927Z,48.36
2018-06-21T06:15:15.306Z,49.93
2018-06-21T06:17:43.733Z,50.99
2018-06-21T06:20:12.165Z,50.49
2018-06-21T06:22:40.563Z,50.87
2018-06-21T06:25:08.974Z,50.23
2018-06-21T06:27:37.365Z,47.59
2018-06-21T06:30:06.606Z,49.73
2018-06-21T06:32:35.040Z,49.40
2018-06-21T06:35:03.475Z,48.84
2018-06-21T06:37:31.837Z,48.17
2018-06-21T06:40:00.257Z,46.17
2018-06-21T06:42:28.746Z,46.88
2018-06-21T06:44:57.042Z,46.66
2018-06-21T06:47:25.865Z,46.87
2018-06-21T06:49:54.242Z,45.92
2018-06-21T06:52:22.801Z,47.54
2018-06-21T06:54:51.156Z,46.71
2018-06-21T06:57:19.513Z,44.09
2018-06-21T06:59:47.973Z,45.01
2018-06-21T07:02:16.358Z,45.63
2018-06-21T07:04:44.848Z,44.50
2018-06-21T07:07:13.304Z,44.67
2018-06-21T07:09:41.771Z,45.03
2018-06-21T07:12:10.206Z,43.41
2018-06-21T07:14:38.539Z,44.67
2018-06-21T07:17:07.066Z,42.95
2018-06-21T07:19:35.369Z,41.67
2018-06-21T07:22:03.728Z,40.08
2018-06-21T07:24:32.826Z,39.98
2018-06-21T07:27:01.233Z,40.04
2018-06-21T07:29:29.623Z,40.32
2018-06-21T07:31:57.996Z,40.39
2018-06-21T07:34:26.512Z,39.89
2018-06-21T07:36:54.840Z,39.19
2018-06-21T07:39:23.254Z,39.50
2018-06-21T07:41:51.617Z,38.48
2018-06-21T07:44:19.982Z,39.27
2018-06-21T07:46:48.379Z,38.24
2018-06-21T07:49:16.771Z,37.47
2018-06-21T07:51:45.133Z,37.83
2018-06-21T07:54:13.713Z,37.08
2018-06-21T07:56:42.399Z,36.80
2018-06-21T07:59:11.041Z,37.03
2018-06-21T08:01:39.736Z,36.11
2018-06-21T08:04:08.437Z,36.37
2018-06-21T08:06:36.897Z,35.75
2018-06-21T08:09:08.615Z,34.89
2018-06-21T08:11:36.913Z,35.85
2018-06-21T08:14:05.494Z,36.34
2018-06-21T08:16:33.923Z,36.21
2018-06-21T08:19:02.257Z,36.06
2018-06-21T08:21:30.673Z,36.88
2018-06-21T08:23:59.148Z,34.98
2018-06-21T08:26:27.488Z,36.06
2018-06-21T08:28:55.899Z,37.02
2018-06-21T08:31:24.275Z,37.32
2018-06-21T08:33:52.727Z,38.13
2018-06-21T08:36:21.095Z,38.27
2018-06-21T08:38:49.511Z,37.38
2018-06-21T08:41:17.978Z,36.20
2018-06-21T08:43:46.453Z,38.27
2018-06-21T08:46:14.864Z,38.12
2018-06-21T08:48:44.190Z,38.10
2018-06-21T08:51:12.670Z,38.30
2018-06-21T08:53:41.175Z,36.05
2018-06-21T08:56:09.637Z,36.93
2018-06-21T08:58:38.057Z,38.26
2018-06-21T09:01:06.490Z,37.55
2018-06-21T09:03:35.021Z,35.98
2018-06-21T09:06:03.419Z,33.70
2018-06-21T09:08:31.920Z,34.17
2018-06-21T09:11:00.419Z,34.14
2018-06-21T09:13:33.746Z,34.89
2018-06-21T09:16:02.929Z,32.83
2018-06-21T09:18:31.428Z,32.64
2018-06-21T09:21:00.084Z,32.04
2018-06-21T09:23:28.589Z,32.61
2018-06-21T09:25:57.036Z,32.80
2018-06-21T09:28:25.494Z,31.90
2018-06-21T09:30:53.912Z,32.26
2018-06-21T09:33:22.319Z,32.05
2018-06-21T09:35:50.821Z,33.46
2018-06-21T09:38:24.358Z,33.65
2018-06-21T09:40:57.788Z,32.32
2018-06-21T09:43:31.553Z,37.89
2018-06-21T09:46:37.135Z,33.76
2018-06-21T09:49:06.025Z,33.61
2018-06-21T09:51:34.577Z,35.01
2018-06-21T09:54:03.013Z,33.96
2018-06-21T09:56:31.393Z,34.20
2018-06-21T09:58:59.807Z,34.19
2018-06-21T10:01:28.217Z,33.21
2018-06-21T10:03:56.608Z,32.29
2018-06-21T10:06:25.098Z,33.49
2018-06-21T10:08:53.649Z,32.63
2018-06-21T10:11:22.243Z,33.65
2018-06-21T10:13:50.712Z,31.05
2018-06-21T10:16:19.703Z,35.21
2018-06-21T10:18:48.120Z,32.85
2018-06-21T10:21:16.619Z,31.46
2018-06-21T10:23:45.029Z,32.11
2018-06-21T10:26:13.342Z,31.94
2018-06-21T10:28:41.733Z,32.42
2018-06-21T10:31:10.373Z,30.17
2018-06-21T10:33:38.748Z,31.84
2018-06-21T10:36:07.165Z,30.34
2018-06-21T10:38:35.474Z,31.04
2018-06-21T10:41:03.865Z,29.73
2018-06-21T10:43:32.217Z,29.96
2018-06-21T10:46:00.922Z,31.10
2018-06-21T10:48:29.351Z,31.02
2018-06-21T10:50:57.711Z,31.51
2018-06-21T10:53:26.170Z,29.74
2018-06-21T10:55:54.640Z,29.89
2018-06-21T10:58:23.014Z,31.24
2018-06-21T11:00:51.312Z,28.44
2018-06-21T11:03:21.810Z,30.05
2018-06-21T11:05:50.142Z,29.87
2018-06-21T11:08:18.519Z,29.59
2018-06-21T11:10:46.936Z,31.40
2018-06-21T11:13:15.260Z,29.43
2018-06-21T11:15:43.652Z,31.02
2018-06-21T11:18:12.049Z,30.91
2018-06-21T11:20:40.437Z,30.31
2018-06-21T11:23:08.959Z,31.36
2018-06-21T11:25:37.278Z,31.18
2018-06-21T11:28:05.718Z,31.18
2018-06-21T11:30:35.295Z,31.45
2018-06-21T11:33:03.890Z,31.79
2018-06-21T11:35:32.165Z,31.88
2018-06-21T11:38:00.482Z,31.06
2018-06-21T11:40:28.943Z,30.75
2018-06-21T11:42:57.252Z,29.57
2018-06-21T11:45:25.668Z,29.93
2018-06-21T11:47:54.131Z,29.39
2018-06-21T11:50:22.507Z,29.83
2018-06-21T11:52:50.830Z,27.66
2018-06-21T11:55:19.219Z,29.17
2018-06-21T11:57:47.587Z,26.57
2018-06-21T12:00:15.958Z,28.08
2018-06-21T12:02:44.389Z,26.39
2018-06-21T12:05:12.916Z,27.22
2018-06-21T12:07:41.647Z,27.49
2018-06-21T12:10:10.102Z,27.90
2018-06-21T12:12:38.613Z,28.08
2018-06-21T12:15:06.970Z,24.11
2018-06-21T12:17:35.326Z,22.87
2018-06-21T12:20:03.733Z,23.17
2018-06-21T12:22:32.163Z,22.46
2018-06-21T12:25:00.561Z,23.89
2018-06-21T12:27:29.059Z,22.43
2018-06-21T12:29:57.886Z,23.41
2018-06-21T12:32:26.348Z,22.55
2018-06-21T12:34:54.827Z,23.94
2018-06-21T12:37:23.321Z,22.72
2018-06-21T12:39:51.673Z,23.69
2018-06-21T12:42:20.171Z,23.24
2018-06-21T12:44:48.569Z,22.99
2018-06-21T12:47:16.912Z,23.20
2018-06-21T12:49:45.206Z,23.35
2018-06-21T12:52:13.571Z,25.10
2018-06-21T12:54:42.065Z,24.53
2018-06-21T12:57:10.453Z,25.27
2018-06-21T12:59:38.771Z,25.18
2018-06-21T13:02:07.139Z,24.77
2018-06-21T13:04:35.535Z,30.29
2018-06-21T13:07:03.965Z,29.17
2018-06-21T13:09:43.721Z,27.34
2018-06-21T13:12:26.498Z,23.97
2018-06-21T13:14:55.664Z,19.92
2018-06-21T13:17:24.126Z,24.20
2018-06-21T13:19:52.709Z,24.77
2018-06-21T13:22:21.113Z,24.52
2018-06-21T13:24:49.761Z,24.55
2018-06-21T13:27:18.207Z,24.18
2018-06-21T13:29:46.653Z,23.36
2018-06-21T13:32:15.033Z,22.31
2018-06-21T13:34:43.607Z,21.88
2018-06-21T13:37:12.291Z,18.90
2018-06-21T13:39:40.628Z,18.86
2018-06-21T13:42:09.018Z,18.61
2018-06-21T13:44:37.398Z,17.60
2018-06-21T13:47:05.866Z,22.47
2018-06-21T13:49:34.263Z,23.52
2018-06-21T13:52:02.695Z,27.41
2018-06-21T13:54:31.409Z,29.02
2018-06-21T13:56:59.776Z,30.06
2018-06-21T13:59:28.192Z,31.47
2018-06-21T14:01:56.556Z,35.92
2018-06-21T14:04:24.927Z,36.58
2018-06-21T14:12:49.462Z,33.18
2018-06-21T14:15:18.271Z,35.11
2018-06-21T14:17:47.049Z,38.29
2018-06-21T14:20:15.935Z,40.05
2018-06-21T14:22:44.725Z,41.29
2018-06-21T14:25:13.374Z,42.42
2018-06-21T14:27:41.744Z,41.65
2018-06-21T14:30:10.113Z,41.00
2018-06-21T14:32:38.426Z,37.48
2018-06-21T14:35:06.946Z,36.52
2018-06-21T14:37:35.836Z,32.97
2018-06-21T14:40:04.252Z,30.91
2018-06-21T14:42:32.557Z,31.41
2018-06-21T14:45:00.903Z,31.41
2018-06-21T14:47:29.361Z,34.35
2018-06-21T14:49:57.803Z,34.31
2018-06-21T14:52:26.352Z,35.62
2018-06-21T14:54:54.691Z,36.10
2018-06-21T14:57:23.041Z,35.60
2018-06-21T14:59:51.497Z,37.42
2018-06-21T15:02:19.888Z,38.60
2018-06-21T15:04:48.488Z,37.74
2018-06-21T15:07:16.813Z,38.57
2018-06-21T15:09:45.142Z,36.47
2018-06-21T15:12:13.424Z,36.48
2018-06-21T15:14:42.041Z,34.03
2018-06-21T15:17:10.415Z,31.80
2018-06-21T15:19:38.904Z,33.17
2018-06-21T15:22:07.553Z,33.43
2018-06-21T15:24:35.899Z,33.20
2018-06-21T15:27:04.188Z,34.63
2018-06-21T15:29:32.659Z,36.05
2018-06-21T15:32:00.953Z,37.71
2018-06-21T15:34:29.427Z,36.97
2018-06-21T15:36:57.984Z,38.56
2018-06-21T15:39:26.272Z,38.51
2018-06-21T15:41:54.614Z,38.33
2018-06-21T15:44:23.005Z,38.26
2018-06-21T15:46:51.409Z,37.46
2018-06-21T15:49:19.778Z,39.31
2018-06-21T15:51:48.361Z,40.51
2018-06-21T15:54:17.341Z,42.92
2018-06-21T15:56:45.914Z,42.43
2018-06-21T15:59:14.319Z,43.19
2018-06-21T16:01:43.866Z,44.06
2018-06-21T16:04:12.654Z,44.33
2018-06-21T16:06:41.392Z,43.21
2018-06-21T16:09:11.640Z,43.68
2018-06-21T16:11:41.358Z,43.80
2018-06-21T16:14:10.318Z,43.52
2018-06-21T16:16:38.644Z,43.73
2018-06-21T16:19:18.615Z,43.90
2018-06-21T16:21:47.287Z,43.04
2018-06-21T16:24:15.709Z,43.08
2018-06-21T16:26:44.346Z,43.81
2018-06-21T16:29:12.888Z,44.19
2018-06-21T16:31:41.442Z,45.14
2018-06-21T16:34:09.894Z,45.63
2018-06-21T16:36:38.700Z,47.92
2018-06-21T16:39:08.699Z,48.00
2018-06-21T16:41:37.189Z,48.19
2018-06-21T16:44:08.212Z,48.17
2018-06-21T16:46:41.647Z,48.04
2018-06-21T16:49:09.952Z,49.08
2018-06-21T16:51:38.705Z,49.03
2018-06-21T16:54:07.464Z,48.38
2018-06-21T16:56:35.790Z,48.63
2018-06-21T16:59:04.212Z,46.91
2018-06-21T17:01:32.846Z,45.68
2018-06-21T17:04:02.879Z,43.14
2018-06-21T17:06:31.528Z,42.57
2018-06-21T17:09:00.064Z,41.97
2018-06-21T17:11:28.740Z,41.16
2018-06-21T17:13:57.278Z,40.28
2018-06-21T17:16:26.013Z,39.10
2018-06-21T17:18:54.464Z,38.78
2018-06-21T17:21:22.972Z,37.60
2018-06-21T17:23:51.630Z,36.61
2018-06-21T17:26:20.099Z,37.07
2018-06-21T17:28:48.550Z,35.88
2018-06-21T17:31:16.987Z,32.82
2018-06-21T17:33:45.366Z,28.58
2018-06-21T17:36:13.765Z,24.43
2018-06-21T17:38:42.338Z,22.12
2018-06-21T17:41:10.821Z,21.33
2018-06-21T17:43:39.432Z,21.97
2018-06-21T17:46:07.912Z,22.94
2018-06-21T17:48:36.260Z,22.54
2018-06-21T17:51:04.805Z,22.96
2018-06-21T17:53:34.936Z,23.47
2018-06-21T17:56:04.332Z,23.10
2018-06-21T17:58:32.829Z,23.07
2018-06-21T18:01:01.316Z,23.09
2018-06-21T18:03:29.751Z,22.97
2018-06-21T18:05:58.133Z,24.66
2018-06-21T18:08:26.560Z,27.69
2018-06-21T18:10:55.100Z,28.33
2018-06-21T18:13:23.565Z,29.58
2018-06-21T18:15:52.026Z,30.02
2018-06-21T18:18:20.601Z,29.28
2018-06-21T18:20:49.144Z,29.67
2018-06-21T18:23:17.820Z,29.49
2018-06-21T18:25:46.527Z,29.46
2018-06-21T18:28:15.069Z,28.39
2018-06-21T18:30:43.959Z,28.32
2018-06-21T18:33:12.411Z,27.67
2018-06-21T18:35:40.767Z,28.51
2018-06-21T18:38:09.281Z,27.52
2018-06-21T18:40:37.698Z,27.22
2018-06-21T18:43:06.151Z,27.46
2018-06-21T18:45:34.789Z,27.63
2018-06-21T18:48:03.290Z,27.39
2018-06-21T18:50:31.650Z,27.50
2018-06-21T18:53:00.058Z,26.65
2018-06-21T18:55:29.061Z,27.12
2018-06-21T18:57:57.445Z,27.02
2018-06-21T19:00:26.176Z,27.27
2018-06-21T19:02:54.601Z,27.50
2018-06-21T19:05:22.940Z,27.77
2018-06-21T19:07:56.537Z,28.02
2018-06-21T19:10:30.393Z,28.18
2018-06-21T19:12:58.859Z,40.01
2018-06-21T19:15:28.831Z,35.28
2018-06-21T19:17:58.130Z,35.60
2018-06-21T19:20:27.421Z,30.48
2018-06-21T19:22:55.871Z,29.02
2018-06-21T19:25:25.407Z,28.52
2018-06-21T19:27:53.762Z,29.15
2018-06-21T19:30:22.129Z,29.45
2018-06-21T19:32:50.839Z,31.94
2018-06-21T19:35:19.199Z,35.64
2018-06-21T19:37:47.594Z,44.39
2018-06-21T19:40:15.964Z,43.47
2018-06-21T19:42:44.566Z,35.32
2018-06-21T19:45:12.981Z,32.47
2018-06-21T19:47:41.933Z,33.67
2018-06-21T19:50:10.458Z,31.03
2018-06-21T19:52:38.835Z,36.18
2018-06-21T19:55:07.400Z,34.37
2018-06-21T19:57:35.807Z,35.24
2018-06-21T20:00:05.419Z,32.73
2018-06-21T20:02:39.105Z,51.83
2018-06-21T20:05:07.503Z,34.76
2018-06-21T20:07:35.888Z,35.07
2018-06-21T20:10:04.334Z,47.00
2018-06-21T20:12:32.830Z,34.97
2018-06-21T20:15:01.537Z,35.62
2018-06-21T20:17:29.891Z,33.99
2018-06-21T20:21:01.420Z,41.37
2018-06-21T20:23:29.937Z,36.18
2018-06-21T20:25:58.404Z,40.53
2018-06-21T20:28:26.831Z,41.00
2018-06-21T20:30:55.229Z,44.57
2018-06-21T20:33:23.628Z,31.68
2018-06-21T20:35:52.038Z,31.47
2018-06-21T20:38:20.610Z,31.81
2018-06-21T20:40:49.475Z,31.95
2018-06-21T20:43:18.194Z,32.82
2018-06-21T20:45:47.014Z,34.43
2018-06-21T20:48:15.752Z,36.84
2018-06-21T20:50:44.653Z,34.97
2018-06-21T20:53:13.058Z,34.99
2018-06-21T20:55:41.472Z,38.69
2018-06-21T20:58:10.425Z,35.91
2018-06-21T21:00:39.318Z,37.54
2018-06-21T21:03:08.313Z,37.15
2018-06-21T21:05:37.234Z,34.40
2018-06-21T21:08:06.299Z,34.35
2018-06-21T21:10:35.215Z,35.28
2018-06-21T21:13:04.502Z,36.44
2018-06-21T21:15:33.609Z,36.02
2018-06-21T21:18:03.128Z,35.51
2018-06-21T21:20:32.642Z,36.19
2018-06-21T21:23:01.642Z,37.00
2018-06-21T21:25:30.559Z,36.25
2018-06-21T21:28:03.265Z,35.84
2018-06-21T21:30:41.037Z,37.48
2018-06-21T21:33:16.096Z,37.57
2018-06-21T21:35:56.545Z,36.89
2018-06-21T21:38:33.934Z,37.67
2018-06-21T21:41:03.672Z,36.78
2018-06-21T21:43:35.765Z,38.04
2018-06-21T21:46:04.831Z,37.94
2018-06-21T21:48:33.742Z,38.54
2018-06-21T21:51:03.284Z,39.07
2018-06-21T21:53:34.608Z,40.11
2018-06-21T21:56:03.665Z,39.58
2018-06-21T21:58:32.455Z,39.26
2018-06-21T22:01:01.450Z,39.38
2018-06-21T22:03:31.092Z,39.27
2018-06-21T22:05:59.965Z,39.66
2018-06-21T22:08:28.889Z,39.56
2018-06-21T22:11:02.933Z,39.41
2018-06-21T22:13:32.069Z,39.79
2018-06-21T22:16:13.278Z,39.73
2018-06-21T22:18:48.447Z,39.75
2018-06-21T22:21:17.564Z,39.90
2018-06-21T22:23:46.304Z,39.83
2018-06-21T22:26:14.961Z,39.98
2018-06-21T22:28:43.748Z,41.43
2018-06-21T22:31:12.395Z,40.58
2018-06-21T22:33:46.655Z,41.06
2018-06-21T22:36:19.050Z,40.41
2018-06-21T22:38:47.750Z,41.01
2018-06-21T22:41:17.763Z,40.92
2018-06-21T22:43:46.615Z,41.00
2018-06-21T22:46:15.390Z,40.78
2018-06-21T22:48:44.143Z,40.99
2018-06-21T22:51:12.828Z,40.83
2018-06-21T22:53:41.436Z,41.91
2018-06-21T22:56:10.364Z,41.96
2018-06-21T22:58:39.341Z,41.41
2018-06-21T23:01:08.169Z,41.35
2018-06-21T23:03:37.509Z,41.48
2018-06-21T23:06:06.340Z,40.91
2018-06-21T23:08:36.224Z,41.44
2018-06-21T23:11:06.022Z,41.47
2018-06-21T23:13:36.658Z,41.30
2018-06-21T23:16:05.476Z,40.78
2018-06-21T23:18:45.947Z,40.58
2018-06-21T23:21:15.864Z,41.25
2018-06-21T23:23:45.804Z,41.41
2018-06-21T23:26:15.155Z,42.11
2018-06-21T23:28:44.145Z,41.45
2018-06-21T23:31:12.893Z,41.03
2018-06-21T23:33:41.853Z,41.74
2018-06-21T23:36:10.545Z,41.62
2018-06-21T23:38:39.435Z,41.82
2018-06-21T23:41:08.175Z,42.17
2018-06-21T23:43:36.864Z,42.33
2018-06-21T23:46:05.663Z,42.69
2018-06-21T23:48:34.616Z,42.62
2018-06-21T23:51:03.408Z,43.70
2018-06-21T23:53:32.127Z,43.11
2018-06-21T23:56:00.920Z,43.66
2018-06-21T23:58:29.727Z,43.87
